CSCL Fuzhou — ELYA7 — position and weather

sailwx.info

Track history (hours):
 
Tides and Currents Weather Stations Pressure Air Temp Water Temp Dewpoint Dewpoint Depression Visibility Wind Speed Wind Dir Waves Ship Positions

CSCL Fuzhou

Last reported at 2016-Dec-02 12:12 UTC. Time now 2016-Dec-06 12:12 UTC.
Position N 01°15' E 104°03'.

Length 207.4 m; beam 29.8 m; draft 11.4 m.

Type: Ship (hazmat cat A). MMSI: 636016483.

Date/timePositionNaut miles runAvg speedWind from/ knotsBaromVisibWave heightAir tempDewpointWater temp
2016-Dec-02 12:12N 01°15' E 104°03'1319.4
2016-Dec-02 11:33N 01°11' E 103°51'87 3.0
2016-Dec-01 06:25N 01°46' E 102°31'1517.0
2016-Dec-01 05:33N 01°52' E 102°18'  
2016-Nov-28 18:06N 05°25' E 100°22'3 5.1
2016-Nov-28 17:31N 05°28' E 100°21'240 5.0
2016-Nov-26 17:33N 01°56' E 102°15'1312.6
2016-Nov-26 16:33N 01°51' E 102°27'1512.7
2016-Nov-26 15:22N 01°44' E 102°40'6913.4
2016-Nov-26 10:11N 01°15' E 103°43'4 5.7
2016-Nov-26 09:33N 01°17' E 103°46'0 0.1
2016-Nov-26 08:32N 01°17' E 103°46'0 0.0
2016-Nov-26 07:32N 01°17' E 103°46'0 0.0
2016-Nov-26 06:32N 01°17' E 103°46'0 0.0
2016-Nov-26 05:20N 01°17' E 103°46'0 0.0
2016-Nov-26 03:26N 01°17' E 103°46'0 0.0
2016-Nov-26 02:32N 01°17' E 103°46'0 0.0
2016-Nov-26 01:32N 01°17' E 103°46'0 0.0
2016-Nov-26 00:32N 01°17' E 103°46'0 0.0
2016-Nov-25 23:33N 01°17' E 103°46'0 0.0
2016-Nov-25 22:33N 01°17' E 103°46'0 0.0
2016-Nov-25 21:30N 01°17' E 103°46'0 0.0
2016-Nov-25 20:33N 01°17' E 103°46'8 7.8
2016-Nov-25 19:34N 01°13' E 103°52'10 9.6
2016-Nov-25 18:32N 01°16' E 104°02'  
Track history (hours):
 
Tides and Currents Weather Stations Pressure Air Temp Water Temp Dewpoint Dewpoint Depression Visibility Wind Speed Wind Dir Waves Ship Positions

CSCL Fuzhou

Last reported at 2016-Dec-02 12:12 UTC. Time now 2016-Dec-06 12:12 UTC.
Position N 01°15' E 104°03'.

Length 207.4 m; beam 29.8 m; draft 11.4 m.

Type: Ship (hazmat cat A). MMSI: 636016483.

Date/timePositionNaut miles runAvg speedWind from/ knotsBaromVisibWave heightAir tempDewpointWater temp
2016-Dec-02 12:12N 01°15' E 104°03'1319.4
2016-Dec-02 11:33N 01°11' E 103°51'87 3.0
2016-Dec-01 06:25N 01°46' E 102°31'1517.0
2016-Dec-01 05:33N 01°52' E 102°18'  
2016-Nov-28 18:06N 05°25' E 100°22'3 5.1
2016-Nov-28 17:31N 05°28' E 100°21'240 5.0
2016-Nov-26 17:33N 01°56' E 102°15'1312.6
2016-Nov-26 16:33N 01°51' E 102°27'1512.7
2016-Nov-26 15:22N 01°44' E 102°40'6913.4
2016-Nov-26 10:11N 01°15' E 103°43'4 5.7
2016-Nov-26 09:33N 01°17' E 103°46'0 0.1
2016-Nov-26 08:32N 01°17' E 103°46'0 0.0
2016-Nov-26 07:32N 01°17' E 103°46'0 0.0
2016-Nov-26 06:32N 01°17' E 103°46'0 0.0
2016-Nov-26 05:20N 01°17' E 103°46'0 0.0
2016-Nov-26 03:26N 01°17' E 103°46'0 0.0
2016-Nov-26 02:32N 01°17' E 103°46'0 0.0
2016-Nov-26 01:32N 01°17' E 103°46'0 0.0
2016-Nov-26 00:32N 01°17' E 103°46'0 0.0
2016-Nov-25 23:33N 01°17' E 103°46'0 0.0
2016-Nov-25 22:33N 01°17' E 103°46'0 0.0
2016-Nov-25 21:30N 01°17' E 103°46'0 0.0
2016-Nov-25 20:33N 01°17' E 103°46'8 7.8
2016-Nov-25 19:34N 01°13' E 103°52'10 9.6
2016-Nov-25 18:32N 01°16' E 104°02'  

Dump ship's entire track history